Fedor Khrenov

Scout - Lokomotiv Moscow
3 Dec 2028
Sunday
Process

Personality

Adaptability (17) Ambition (4) Controversy (2) Loyalty (19) Pressure (19) Professionalism (13) Sportsmanship (1) Temperament (9)

Profile

Coaching Style Democratic
License Continental C
Determination 9
Man Management 9
Motivating 5
Discipline 6
Job Satisfaction
100%
Fatigue
0%
Role Scout
Wage 86.2K p/w
Contract 14.03.2029

Performance

Behaviour Good
Training Effectiveness
50%
Player Development
60%
Injury Prevention
50%
Tactical Implementation
30%

Recent Events

Recommended a transfer target now
Recommended a transfer target now
Recommended a transfer target now
Recommended a transfer target now
Assessed a player now
Assessed a player now
Assessed a player now
Assessed a player now

Currently Monitoring

159
Player Club Status Ability Confidence Watched Last Observed Latest Vote
Radek Vítek Middlesbrough Active 156 / 143 40% 13 02.12.2028 -
Lautaro Morales Lanús Active 136 / 126 40% 5 02.12.2028 -
Kostantis Tzolakis Brighton Active 157 / 150 40% 5 02.12.2028 -
Alexandr Chernikov Krasnodar Active 145 / 138 40% 4 01.12.2028 -
Ryan Sessegnon Fulham Active 156 / 157 40% 2 01.12.2028 -
Jacob Greaves Ipswich Town Active 158 / 147 40% 1 01.12.2028 -
Samuel Brolin Kalmar FF Active 126 / 123 40% 6 30.11.2028 -
Lucas Cuevas Rosario Central Active 121 / 133 40% 4 30.11.2028 -
Murphy Cooper Plymouth Argyle Active 133 / 132 40% 7 29.11.2028 -
Dean Henderson Crystal Palace Active 160 / 161 40% 20 29.11.2028 -
Juanlu Bournemouth Active 150 / 147 40% 5 28.11.2028 -
Tyrick Mitchell Newcastle United Active 156 / 154 40% 2 28.11.2028 -
Malick Thiaw Ipswich Town Active 170 / 169 40% 1 28.11.2028 -
Rubens Dinamo Moscow Active 144 / 136 40% 4 27.11.2028 -
João Victor CSKA Moscow Active 142 / 128 40% 5 27.11.2028 -
Josh Keeley Luton Town Active 150 / 154 40% 9 24.11.2028 -
Carlos Marín Albacete Active 131 / 144 40% 6 24.11.2028 -
Tino Livramento Newcastle United Active 177 / 164 40% 2 24.11.2028 -
Nicolò Savona Nottingham Forest Active 156 / 166 40% 1 24.11.2028 -
Amadou Onana Aston Villa Active 171 / 168 40% 1 23.11.2028 -
Lewis Cook Blackburn Rovers Active 163 / 152 40% 1 23.11.2028 -
Jonathan De Irastorza Independiente Active 135 / 122 40% 1 23.11.2028 -
Oliver Dovin Coventry City Active 155 / 137 40% 15 22.11.2028 -
Robin Roefs Sunderland Active 144 / 156 40% 14 22.11.2028 -
Evgeny Latyshonok Nizhniy Novgorod Active 123 / 137 40% 15 17.11.2028 -
Joaquín Blázquez Talleres Active 122 / 127 40% 4 17.11.2028 -
George Wickens Blackpool Active 128 / 130 40% 1 17.11.2028 -
Anthony Patterson Wrexham Active 149 / 130 40% 18 15.11.2028 -
Federico Losas Chacarita Juniors Active 118 / 135 40% 1 15.11.2028 -
Facundo Sanguinetti Banfield Active 132 / 141 40% 7 13.11.2028 -
Felipe Peña Biafore Lanús Active 143 / 133 40% 2 13.11.2028 -
Santiago González Tigre Active 140 / 129 40% 4 13.11.2028 -
Luciano Jachfe Nueva Chicago Active 122 / 135 40% 1 13.11.2028 -
Leny Yoro Preston Active 153 / 154 40% 1 13.11.2028 -
Théo Hernández CSKA Moscow Active 157 / 150 40% 5 10.11.2028 -
Mark Travers Leicester City Active 145 / 139 40% 4 10.11.2028 -
Boubacar Kamara Aston Villa Active 178 / 168 40% 2 10.11.2028 -
Ismaël Bennacer Boca Juniors Active 141 / 147 40% 4 08.11.2028 -
Álex Valle Boca Juniors Active 151 / 135 40% 1 08.11.2028 -
Levi Colwill Chelsea Active 167 / 159 40% 3 07.11.2028 -
Tobías Ramírez River Plate Active 125 / 142 40% 1 07.11.2028 -
Marco Pellegrino Boca Juniors Active 127 / 129 40% 1 07.11.2028 -
Carl Rushworth Aston Villa Active 167 / 163 40% 21 05.11.2028 -
Robert Sánchez Newcastle United Active 167 / 151 40% 3 04.11.2028 -
Vladislav Torop CSKA Moscow Active 150 / 135 40% 6 03.11.2028 -
Christos Mandas Lazio Active 155 / 157 40% 19 02.11.2028 -
James Trafford Leeds United Active 166 / 164 40% 20 02.11.2028 -
Lukáš Horníček Burnley Active 152 / 150 40% 16 01.11.2028 -
Alejandro Rodríguez Melgar Active 119 / 114 40% 1 01.11.2028 -
Abduvohid Ne'matov Nasaf Active 130 / 135 40% 8 31.10.2028 -
Juan Carlos Portillo River Plate Active 134 / 129 40% 3 31.10.2028 -
Andrey Santos Bolton Wanderers Active 157 / 146 40% 1 31.10.2028 -
Wendel Zenit Active 145 / 145 40% 9 29.10.2028 -
Guille Rosas Boca Juniors Active 141 / 137 40% 5 28.10.2028 -
Leandro Brey Boca Juniors Active 133 / 145 40% 7 26.10.2028 -
Viktor Johansson Bournemouth Active 150 / 148 40% 3 25.10.2028 -
Gianluigi Donnarumma AS Roma Active 173 / 177 40% 9 24.10.2028 -
Caoimhin Kelleher Brentford Active 163 / 156 40% 18 24.10.2028 -
Daniel Peretz Wolverhampton Active 158 / 162 40% 4 22.10.2028 -
André Wolverhampton Active 152 / 145 40% 1 21.10.2028 -
Matías Galarza Talleres Active 123 / 122 40% 1 21.10.2028 -
Sol Brynn Bradford City Active 147 / 147 40% 10 18.10.2028 -
Denis Adamov Zenit Active 125 / 137 40% 13 15.10.2028 -
Mads Hermansen West Ham United Active 149 / 143 40% 11 13.10.2028 -
Unai Marrero Real Sociedad Active 150 / 138 40% 4 12.10.2028 -
Sven Botman Newcastle United Active 169 / 174 40% 1 08.10.2028 -
Gastón Martirena Racing Club Active 141 / 127 40% 2 06.10.2028 -
Nino Dinamo Moscow Active 149 / 143 40% 1 04.10.2028 -
Riku Yamane Yokohama F. Marinos Active 133 / 152 40% 1 04.10.2028 -
Vladan Kovačević Norwich City Active 127 / 142 40% 14 01.10.2028 -
Aaron Ramsdale Southampton Active 151 / 161 40% 19 26.09.2028 -
Emil Audero Como Active 132 / 140 40% 1 26.09.2028 -
Temirlan Anarbekov Kairat Active 121 / 130 40% 4 24.09.2028 -
James Beadle Hull City Active 150 / 144 40% 1 24.09.2028 -
Luis Ingolotti Atlético Tucumán Active 118 / 127 40% 3 22.09.2028 -
Stanislav Agkatsev Brentford Rejected 140 / 146 66% 2 21.09.2028 Reject
Jonmi Magunagoitia Eibar Active 148 / 142 40% 1 18.09.2028 -
Douglas Augusto Krasnodar Active 137 / 131 40% 6 15.09.2028 -
Lewis Hall Newcastle United Active 156 / 170 40% 1 15.09.2028 -
Tomás Durso Sarmiento Active 117 / 120 40% 1 13.09.2028 -
Giorgi Mamardashvili Liverpool Active 161 / 162 40% 3 11.09.2028 -
Antonín Kinský Tottenham Active 155 / 154 40% 3 11.09.2028 -
Bart Verbruggen Liverpool Active 169 / 176 40% 2 10.09.2028 -
Ander Astralaga Newcastle United Active 138 / 156 40% 1 01.09.2028 -
Zion Suzuki Aston Villa Active 152 / 163 40% 1 28.08.2028 -
Jakub Stolarczyk Middlesbrough Active 144 / 157 40% 2 27.08.2028 -
Ivan Oblyakov CSKA Moscow Active 142 / 134 40% 5 26.08.2028 -
Balázs Tóth Blackburn Rovers Active 142 / 149 40% 11 24.08.2028 -
Damián Fernández Defensa y Justicia Active 124 / 120 40% 2 24.08.2028 -
Lautaro Di Lollo Boca Juniors Active 141 / 129 40% 1 24.08.2028 -
Gonzalo Montiel River Plate Active 122 / 143 40% 1 24.08.2028 -
Adam Gnezda Čerin Al Wahda Active 144 / 147 40% 1 21.08.2028 -
Illan Meslier Crystal Palace Active 154 / 150 40% 1 21.08.2028 -
Alex Meret Napoli Active 167 / 160 40% 16 20.08.2028 -
Elia Caprile Cagliari Active 149 / 158 40% 7 20.08.2028 -
Ludovico Del Sorbo Sorrento Active 128 / 115 40% 2 20.08.2028 -
Alessandro Plizzari Juve Stabia Active 132 / 130 40% 1 18.08.2028 -
Alen Sherri Frosinone Active 130 / 131 40% 1 18.08.2028 -
Mile Svilar AS Roma Active 162 / 167 40% 17 17.08.2028 -
Michele Cerofolini Empoli Active 128 / 140 40% 13 17.08.2028 -
Gianluca Saro Foggia Active 119 / 114 40% 2 16.08.2028 -
Oufa Shobeir MC Alger Active 140 / 143 40% 2 16.08.2028 -
Amir Saipi Mallorca Active 136 / 129 40% 8 15.08.2028 -
Franck Fomeyem Córdoba Active 123 / 120 40% 1 14.08.2028 -
Adrián Bernabé Parma Active 143 / 158 40% 1 14.08.2028 -
Matteo Prati Cagliari Active 148 / 149 40% 1 14.08.2028 -
Adrià Altimira Deportivo La Coruña Active 148 / 136 40% 1 12.08.2028 -
Tommaso Barbieri Cremonese Active 141 / 131 40% 1 10.08.2028 -
Marco Curto Empoli Active 125 / 129 40% 1 10.08.2028 -
Darko Todorović Fakel Active 115 / 116 72% 1 07.08.2028 Approve
Matteo Ruggeri Middlesbrough Active 169 / 167 40% 2 06.08.2028 -
Mats Wieffer Brighton Active 158 / 163 40% 1 06.08.2028 -
Neco Williams Wrexham Active 161 / 147 40% 1 06.08.2028 -
Nathan Trott Cardiff City Active 125 / 143 40% 8 04.08.2028 -
Joe Whitworth Wigan Athletic Active 132 / 122 40% 2 02.08.2028 -
Fran Vieites Walsall Active 140 / 136 40% 14 01.08.2028 -
Filip Marschall Stevenage Active 129 / 119 40% 4 30.07.2028 -
Will Mannion Charlton Athletic Active 122 / 131 40% 1 28.07.2028 -
Samuele Perisan Reggiana Active 116 / 114 40% 1 28.07.2028 -
Vitaly Janelt Derby County Active 157 / 157 40% 2 27.07.2028 -
Archie Gray Southampton Active 152 / 147 40% 1 27.07.2028 -
Yasin Ayari Middlesbrough Active 147 / 142 40% 1 20.07.2028 -
Bafodé Diakité Plymouth Argyle Active 141 / 156 40% 2 19.07.2028 -
Max Bird Birmingham Active 136 / 147 40% 1 19.07.2028 -
Welington Southampton Active 148 / 130 40% 1 18.07.2028 -
Manu Koné AS Roma Active 180 / 166 40% 1 18.07.2028 -
Vanja Milinković-Savić Atalanta Active 159 / 160 40% 14 14.07.2028 -
Yury Zhuravlev Fakel Active 105 / 105 72% 1 10.07.2028 Approve
Timur Suleimanov Nizhniy Novgorod Active 125 / 121 72% 1 03.07.2028 Approve
Alexei Rojas Fedorushchenko Barrow AFC Active 116 / 117 40% 4 26.06.2028 -
Gaëtan Coucke Sampdoria Active 118 / 137 40% 5 15.06.2028 -
Miro Arsenal Tula Active 123 / 123 72% 1 15.06.2028 Approve
Largie Ramazani Leeds United Active 149 / 136 40% 1 13.06.2028 -
Zito Luvumbo Cagliari Active 140 / 122 40% 1 13.06.2028 -
Maxim Borisko CSKA Moscow Active 124 / 130 40% 12 26.04.2028 -
Lukas Jensen Millwall Active 116 / 136 40% 4 13.04.2028 -
Adrian Šemper Al-Fateh Active 129 / 148 40% 5 28.02.2028 -
Riccardo Gagno Vicenza Active 135 / 116 40% 2 23.02.2028 -
Jonathan Klinsmann Cesena Active 129 / 128 40% 2 15.02.2028 -
Maílson Al-Taawoun Active 127 / 143 40% 3 14.02.2028 -
Semuel Pizzignacco Monza Active 140 / 127 40% 2 07.02.2028 -
Nicolás Fernández Mercau Club America Active 134 / 134 67% 1 25.01.2028 Approve
Bitello Universidad de Chile Active 135 / 135 68% 1 25.01.2028 Approve
Nikolay Titkov Baltika Active 120 / 124 69% 1 12.07.2027 Approve
Jota Silva Olympiacos Active 131 / 138 40% 1 13.06.2027 -
Gustavo Mantuan Zenit Active 143 / 129 40% 8 23.01.2027 -
Ferland Mendy Real Madrid Active 141 / 129 40% 8 23.01.2027 -
Lucas Olaza CSKA Moscow Active 135 / 124 40% 6 22.01.2027 -
Tormena Krasnodar Active 137 / 124 40% 4 05.01.2027 -
Kevin Pina Krasnodar Active 127 / 135 40% 2 01.01.2027 -
Diego Gómez Brighton Active 143 / 136 40% 1 26.12.2026 -
Valentín Gómez Betis Active 150 / 154 40% 2 08.12.2026 -
Luis Chávez Dinamo Moscow Active 129 / 134 40% 4 02.12.2026 -
Danil Glebov Dinamo Moscow Active 132 / 120 40% 5 18.11.2026 -
Manu Morlanes Mallorca Active 139 / 151 40% 1 10.11.2026 -
Metinho Basel Active 131 / 127 40% 1 01.11.2026 -
Yves Bissouma Tottenham Active 142 / 131 40% 4 28.10.2026 -
Edu Expósito Espanyol Active 150 / 126 40% 2 21.10.2026 -
Carl Starfelt Celta Active 138 / 135 40% 1 02.08.2026 -